Newman, Illinois
Current Conditions -  °F | °C
As of 5:55 PM on Friday 28 Nov 2014 (Local Time) from KPRG Reporting Station
Clear Clear  
Wind Chill: 26°   Ceiling: Unl
Heat Index: 36°   Visibility: 10mi
Dew Point: 30°   Wind: 15mph
Humidity: 81%   Direction: 160°SSE
Pressure: 30.05"   Gusts: NA
Location:  39.8°N, 87.99°W
Report Text: KPRG 282355Z AUTO 16013KT 10SM CLR 02/M01 A3005 RMK AO2 T00211009 10037 20006
Loading
Personal Weather Stations






























Interactive Weather Map New forecast layout! Learn more

10-Day Weather Forecast

Advertisements
Track Severe Weather on mobile